Portada
METAR-TAF:

METAR-TAF

Aeropuertos :

Aeropuerto Internacional de Pekín-Capital

Pekín, China

latitud: 39-56N, longitud: 116-17E, altitud: 55 m

Observación

El informe se hizo hace 41 minutos, a las 01:30 UTC
Viento 4 kt con dirección variable
Temperatura 22°C
Humedad 57%
Presión 1006 hPa
Visibilidad 10 km o más
sin nubes por debajo de 1500 m y sin presencia de cumulonimbus.

METAR: ZBAA 280130Z VRB02MPS CAVOK 22/13 Q1006 NOSIG

Hora: 10:11 (02:11 UTC)

Pronóstico

El informe se hizo hace 4 horas y 56 minutos, a las 21:15 UTC
Pronóstico válido del 28 a las 00 UTC al 28 a las 24 UTC
Viento 8 kt del sur
Visibilidad 10 km o más
sin nubes por debajo de 1500 m y sin presencia de cumulonimbus.
Temporalmente
del 28 a las 11 UTC al 28 a las 15 UTC
Escasas nubes a una altura de 4000 ft, Cumulonimbus.
tormenta, lluvia ligera

TAF: ZBAA 272115Z 2800/2824 18004MPS CAVOK TX32/2807Z TN16/2821Z TEMPO 2811/2815 -TSRA FEW040CB

Observaciones y pronósticos meteorológicos de más de 4000 aeropuertos (mensajes METAR y TAF).

Los puntos amarillos y rojos representan las estaciones disponibles.

Ponga el ratón en el punto deseado para ver el nombre de la estación.

Haga clic para ver las observaciones y los pronósticos meteorológicos.

Para cambiar el mapa : haga clic en los botones verdes con una cruz de color negro para hacer un zoom, en el botón verde con un guión para alejar o en las flechas verdes para mapas adyacentes.


METAR-TAF: